STL weather

St Louis Lambert International Airport
St Louis, Missouri, United States

Public forecast

Using degrees Fahrenheit for public forecast. Weather courtesy of forecast.io.

Current aviation weather report (METAR) for St Louis Lambert International Airport

Retrieved 2020/08/07 23:51 UTC (27 minutes ago):

KSTL 072351Z 14010KT 10SM FEW250 28/17 A3010 RMK AO2 SLP182 T02830167 10294 20278 55005

Aviation forecast (TAF) for St Louis Lambert International Airport

Retrieved 2020-08-08 00:33 UTC (0 seconds ago):

TAF KSTL 072331Z 0800/0906 15007KT P6SM FEW250 FM081500 20008KT P6SM BKN100 FM081800 22008KT P6SM VCSH BKN080 FM082100 17006KT P6SM SCT200